Rangeley, Maine
Current Conditions -  °F | °C
As of 6:52 PM on Wednesday 22 Oct 2014 (Local Time) from KBML Reporting Station
Light Rain Light Rain  
Wind Chill: 43°   Ceiling: 2700
Heat Index: 46°   Visibility: 7mi
Dew Point: 43°   Wind: 6mph
Humidity: 89%   Direction: 20°NNE
Pressure: 30.13"   Gusts: NA
Location:  44.97°N, 70.65°W
Report Text: KBML 222252Z AUTO 02005KT 7SM -RA FEW016 OVC027 08/06 A3013 RMK AO2 SLP210 P0003 T00780061
Loading
Personal Weather Stations






























Interactive Weather Map New forecast layout! Learn more

10-Day Weather Forecast

Advertisements
Track Severe Weather on mobile